createdAt,value
2023-03-19T00:00:49.650Z,995.92
2023-03-19T00:05:49.592Z,995.95
2023-03-19T00:10:49.541Z,995.95
2023-03-19T00:15:49.475Z,995.90
2023-03-19T00:20:49.431Z,995.90
2023-03-19T00:25:49.355Z,995.99
2023-03-19T00:30:49.426Z,996.00
2023-03-19T00:35:49.301Z,996.01
2023-03-19T00:40:49.189Z,996.10
2023-03-19T00:45:49.164Z,996.10
2023-03-19T00:50:49.085Z,996.07
2023-03-19T00:55:49.035Z,996.03
2023-03-19T01:00:48.972Z,996.16
2023-03-19T01:06:24.644Z,996.11
2023-03-19T01:11:24.565Z,996.13
2023-03-19T01:16:24.498Z,996.10
2023-03-19T01:21:24.472Z,996.08
2023-03-19T01:26:24.431Z,996.08
2023-03-19T01:31:24.371Z,996.08
2023-03-19T01:36:24.290Z,996.09
2023-03-19T01:41:24.336Z,996.11
2023-03-19T01:46:24.237Z,996.09
2023-03-19T01:51:24.122Z,996.03
2023-03-19T01:56:24.187Z,996.04
2023-03-19T02:01:24.129Z,995.93
2023-03-19T02:06:24.030Z,995.84
2023-03-19T02:11:23.935Z,995.79
2023-03-19T02:16:23.958Z,995.75
2023-03-19T02:21:23.808Z,995.85
2023-03-19T02:26:23.754Z,995.89
2023-03-19T02:31:23.771Z,995.87
2023-03-19T02:36:23.714Z,995.92
2023-03-19T02:41:23.604Z,995.85
2023-03-19T02:46:23.595Z,995.85
2023-03-19T02:51:23.440Z,995.90
2023-03-19T02:56:23.414Z,995.91
2023-03-19T03:01:23.348Z,995.92
2023-03-19T03:06:23.299Z,995.90
2023-03-19T03:11:23.251Z,995.89
2023-03-19T03:16:23.254Z,995.90
2023-03-19T03:21:23.114Z,995.95
2023-03-19T03:26:24.093Z,995.89
2023-03-19T03:31:23.071Z,995.93
2023-03-19T03:36:23.054Z,995.93
2023-03-19T03:41:22.983Z,996.00
2023-03-19T03:46:22.941Z,995.99
2023-03-19T03:51:22.815Z,995.98
2023-03-19T03:56:22.839Z,995.99
2023-03-19T04:01:22.671Z,996.02
2023-03-19T04:06:22.613Z,996.02
2023-03-19T04:11:22.551Z,996.08
2023-03-19T04:16:22.564Z,996.08
2023-03-19T04:21:22.442Z,996.14
2023-03-19T04:26:22.406Z,996.22
2023-03-19T04:31:22.452Z,996.19
2023-03-19T04:36:22.268Z,996.30
2023-03-19T04:41:31.061Z,996.31
2023-03-19T04:46:22.268Z,996.41
2023-03-19T04:51:22.180Z,996.46
2023-03-19T04:56:22.141Z,996.40
2023-03-19T05:01:22.079Z,996.50
2023-03-19T05:06:23.042Z,996.53
2023-03-19T05:11:21.916Z,996.53
2023-03-19T05:16:21.932Z,996.47
2023-03-19T05:21:21.804Z,996.38
2023-03-19T05:26:21.778Z,996.51
2023-03-19T05:31:21.749Z,996.54
2023-03-19T05:36:21.620Z,996.58
2023-03-19T05:41:21.691Z,996.60
2023-03-19T05:46:22.665Z,996.63
2023-03-19T05:51:21.686Z,996.69
2023-03-19T05:56:21.504Z,996.74
2023-03-19T06:01:21.373Z,996.74
2023-03-19T06:06:22.388Z,996.74
2023-03-19T06:11:21.252Z,996.76
2023-03-19T06:16:21.265Z,996.81
2023-03-19T06:21:21.144Z,996.92
2023-03-19T06:26:21.054Z,996.97
2023-03-19T06:31:21.015Z,997.01
2023-03-19T06:36:20.974Z,997.03
2023-03-19T06:41:22.111Z,997.11
2023-03-19T06:46:21.038Z,997.16
2023-03-19T06:51:20.928Z,997.24
2023-03-19T06:58:06.692Z,997.20
2023-03-19T07:04:16.053Z,997.25
2023-03-19T07:08:54.592Z,997.29
2023-03-19T07:13:54.575Z,997.32
2023-03-19T07:18:55.408Z,997.33
2023-03-19T07:29:19.947Z,997.52
2023-03-19T07:34:19.926Z,997.51
2023-03-19T07:39:19.955Z,997.54
2023-03-19T07:44:19.765Z,997.58
2023-03-19T07:49:19.727Z,997.58
2023-03-19T07:54:19.709Z,997.59
2023-03-19T07:59:19.710Z,997.60
2023-03-19T08:04:23.044Z,997.57
2023-03-19T08:09:20.598Z,997.61
2023-03-19T08:14:20.360Z,997.70
2023-03-19T08:19:19.426Z,997.73
2023-03-19T08:24:19.357Z,997.80
2023-03-19T08:29:19.332Z,997.80
2023-03-19T08:34:19.280Z,997.90
2023-03-19T08:39:19.334Z,997.93
2023-03-19T08:44:28.139Z,997.94
2023-03-19T08:49:19.106Z,998.02
2023-03-19T08:54:22.129Z,998.09
2023-03-19T08:59:18.950Z,998.10
2023-03-19T09:04:18.948Z,998.04
2023-03-19T09:09:18.842Z,998.00
2023-03-19T09:14:18.814Z,998.04
2023-03-19T09:19:18.738Z,998.04
2023-03-19T09:24:18.708Z,998.08
2023-03-19T09:29:18.624Z,998.13
2023-03-19T09:34:18.566Z,998.05
2023-03-19T09:39:18.500Z,998.06
2023-03-19T09:44:18.439Z,998.01
2023-03-19T09:49:18.437Z,998.00
2023-03-19T09:54:18.333Z,998.04
2023-03-19T09:59:18.325Z,997.99
2023-03-19T10:04:18.354Z,998.04
2023-03-19T10:09:18.165Z,998.07
2023-03-19T10:14:18.132Z,998.12
2023-03-19T10:19:18.065Z,998.04
2023-03-19T10:24:18.004Z,998.11
2023-03-19T10:29:17.984Z,998.05
2023-03-19T10:34:17.900Z,998.10
2023-03-19T10:39:17.834Z,998.17
2023-03-19T10:44:17.830Z,998.18
2023-03-19T10:49:17.780Z,998.16
2023-03-19T10:54:17.693Z,998.14
2023-03-19T10:59:17.607Z,998.12
2023-03-19T11:04:17.645Z,998.08
2023-03-19T11:09:17.533Z,998.10
2023-03-19T11:14:17.500Z,998.04
2023-03-19T11:19:17.384Z,998.07
2023-03-19T11:24:17.344Z,998.15
2023-03-19T11:29:17.301Z,998.12
2023-03-19T11:34:17.271Z,998.19
2023-03-19T11:39:17.175Z,998.14
2023-03-19T11:44:17.110Z,998.16
2023-03-19T11:49:17.062Z,998.16
2023-03-19T11:54:16.993Z,998.15
2023-03-19T11:59:16.970Z,998.20
2023-03-19T12:04:16.928Z,998.25
2023-03-19T12:09:16.869Z,998.20
2023-03-19T12:14:16.847Z,998.22
2023-03-19T12:19:16.744Z,998.23
2023-03-19T12:24:16.710Z,998.19
2023-03-19T12:29:16.658Z,998.19
2023-03-19T12:34:16.602Z,998.26
2023-03-19T12:39:16.680Z,998.31
2023-03-19T12:44:16.518Z,998.30
2023-03-19T12:51:39.018Z,998.30
2023-03-19T12:56:38.957Z,998.32
2023-03-19T13:01:41.199Z,998.32
2023-03-19T13:06:38.847Z,998.39
2023-03-19T13:11:38.829Z,998.43
2023-03-19T13:16:38.695Z,998.48
2023-03-19T13:21:38.679Z,998.42
2023-03-19T13:26:38.652Z,998.40
2023-03-19T13:31:38.618Z,998.21
2023-03-19T13:36:38.634Z,998.23
2023-03-19T13:41:38.477Z,998.18
2023-03-19T13:46:38.471Z,998.26
2023-03-19T13:51:38.371Z,998.20
2023-03-19T13:56:39.293Z,998.21
2023-03-19T14:01:38.245Z,998.11
2023-03-19T14:06:38.347Z,998.12
2023-03-19T14:11:38.125Z,998.18
2023-03-19T14:16:38.160Z,998.18
2023-03-19T14:21:37.999Z,998.16
2023-03-19T14:26:37.968Z,998.13
2023-03-19T14:31:37.965Z,998.15
2023-03-19T14:36:37.873Z,998.18
2023-03-19T14:41:46.645Z,998.17
2023-03-19T14:46:37.705Z,998.25
2023-03-19T14:51:39.173Z,998.31
2023-03-19T14:56:37.634Z,998.30
2023-03-19T15:01:37.652Z,998.27
2023-03-19T15:06:37.516Z,998.33
2023-03-19T15:11:37.505Z,998.30
2023-03-19T15:16:37.490Z,998.34
2023-03-19T15:21:37.365Z,998.30
2023-03-19T15:26:37.294Z,998.34
2023-03-19T15:31:49.560Z,998.37
2023-03-19T15:36:38.206Z,998.39
2023-03-19T15:41:37.187Z,998.37
2023-03-19T15:46:37.151Z,998.33
2023-03-19T15:51:37.102Z,998.39
2023-03-19T15:56:37.091Z,998.38
2023-03-19T16:01:36.968Z,998.50
2023-03-19T16:06:36.938Z,998.54
2023-03-19T16:11:36.832Z,998.55
2023-03-19T16:16:36.742Z,998.69
2023-03-19T16:21:36.810Z,998.88
2023-03-19T16:26:36.748Z,998.95
2023-03-19T16:31:36.705Z,998.96
2023-03-19T16:36:36.617Z,998.88
2023-03-19T16:41:36.519Z,998.99
2023-03-19T16:53:20.545Z,999.10
2023-03-19T16:58:06.776Z,999.07
2023-03-19T17:03:06.716Z,999.17
2023-03-19T17:08:06.606Z,999.30
2023-03-19T17:13:06.616Z,999.33
2023-03-19T17:18:06.536Z,999.43
2023-03-19T17:23:06.477Z,999.57
2023-03-19T17:28:06.415Z,999.60
2023-03-19T17:33:06.512Z,999.66
2023-03-19T17:38:06.428Z,999.76
2023-03-19T17:43:06.394Z,999.82
2023-03-19T17:48:06.256Z,999.95
2023-03-19T17:53:06.146Z,999.91
2023-03-19T17:58:06.145Z,999.96
2023-03-19T18:03:06.056Z,1000.00
2023-03-19T18:08:06.049Z,1000.07
2023-03-19T18:13:07.468Z,1000.10
2023-03-19T18:18:05.957Z,1000.17
2023-03-19T18:23:05.940Z,1000.22
2023-03-19T18:28:05.860Z,1000.26
2023-03-19T18:33:05.830Z,1000.30
2023-03-19T18:38:05.690Z,1000.45
2023-03-19T18:43:09.057Z,1000.51
2023-03-19T18:48:05.670Z,1000.55
2023-03-19T18:53:05.503Z,1000.66
2023-03-19T18:58:05.502Z,1000.71
2023-03-19T19:03:05.478Z,1000.73
2023-03-19T19:08:05.343Z,1000.82
2023-03-19T19:13:05.279Z,1000.82
2023-03-19T19:18:05.241Z,1000.91
2023-03-19T19:23:05.180Z,1000.97
2023-03-19T19:28:05.152Z,1001.06
2023-03-19T19:33:05.083Z,1001.14
2023-03-19T19:38:05.053Z,1001.20
2023-03-19T19:43:04.960Z,1001.27
2023-03-19T19:48:04.886Z,1001.27
2023-03-19T19:53:04.870Z,1001.32
2023-03-19T19:58:06.796Z,1001.38
2023-03-19T20:03:04.745Z,1001.56
2023-03-19T20:08:04.678Z,1001.61
2023-03-19T20:13:04.755Z,1001.62
2023-03-19T20:18:04.591Z,1001.73
2023-03-19T20:23:04.623Z,1001.75
2023-03-19T20:28:04.493Z,1001.86
2023-03-19T20:33:04.498Z,1001.92
2023-03-19T20:38:04.409Z,1001.91
2023-03-19T20:43:04.337Z,1002.03
2023-03-19T20:48:04.239Z,1002.10
2023-03-19T20:53:04.189Z,1002.16
2023-03-19T20:58:04.157Z,1002.16
2023-03-19T21:03:04.121Z,1002.22
2023-03-19T21:08:04.006Z,1002.25
2023-03-19T21:13:04.043Z,1002.35
2023-03-19T21:18:03.970Z,1002.42
2023-03-19T21:23:03.876Z,1002.46
2023-03-19T21:28:03.809Z,1002.46
2023-03-19T21:33:03.811Z,1002.51
2023-03-19T21:38:03.716Z,1002.53
2023-03-19T21:43:03.631Z,1002.45
2023-03-19T21:48:03.653Z,1002.49
2023-03-19T21:53:03.564Z,1002.50
2023-03-19T21:58:04.519Z,1002.49
2023-03-19T22:03:03.523Z,1002.62
2023-03-19T22:08:03.412Z,1002.54
2023-03-19T22:13:03.306Z,1002.55
2023-03-19T22:18:03.236Z,1002.63
2023-03-19T22:23:03.309Z,1002.64
2023-03-19T22:28:03.206Z,1002.65
2023-03-19T22:33:03.171Z,1002.72
2023-03-19T22:38:03.128Z,1002.74
2023-03-19T22:43:02.990Z,1002.73
2023-03-19T22:48:02.917Z,1002.78
2023-03-19T22:53:02.880Z,1002.79
2023-03-19T22:58:02.818Z,1002.88
2023-03-19T23:03:02.800Z,1002.87
2023-03-19T23:08:04.875Z,1002.87
2023-03-19T23:13:02.679Z,1002.88
2023-03-19T23:18:02.591Z,1002.86
2023-03-19T23:23:02.580Z,1003.00
2023-03-19T23:28:11.395Z,1003.05
2023-03-19T23:33:02.699Z,1003.10
2023-03-19T23:38:02.447Z,1003.20
2023-03-19T23:43:02.435Z,1003.22
2023-03-19T23:48:02.307Z,1003.27
2023-03-19T23:53:02.288Z,1003.36
2023-03-19T23:58:02.177Z,1003.38
